Weather

SUNSHINE COAST  TAF / METAR

TAF AMD YBSU 170436Z 1706/1718
02022KT CAVOK
FM171000 34014KT 9999 FEW020
PROB30 TEMPO 1708/1712 VRB30G45KT 4000 TSRAGR BKN020 SCT050CB
RMK
T 27 24 22 21 Q 1010 1012 1013 1013

METAR YBSU 170900Z AUTO 33009KT 9999 // NCD 24/18 Q1013 RMK
RF00.0/000.0

DOQ Compas Heading

Area Briefing TAF / METAR for 40

* AMBERLEY YAMB

TAF AMD YAMB 170717Z 1708/1724
04014KT 9999 SCT040
FM170900 30010KT 9999 FEW040
FM171400 VRB03KT 9999 MIFG NSC
FM172100 VRB05KT CAVOK
RMK
T 23 23 21 19 Q 1009 1010 1012 1012

TTF METAR YAMB 170830Z 08010KT CAVOK 22/19 Q1010
RMK RF00.0/006.6
FM0900 30010KT 9999 FEW040
RMK USE TAF FOR ARRIVALS AFTER 1030Z

ARCHERFIELD YBAF

TAF AMD YBAF 170647Z 1706/1718
03017G28KT 9999 SCT030
FM171000 35016KT 9999 SCT025
FM171600 17012KT 9999 SCT015
TEMPO 1706/1708 VRB20G45KT 1000 TSRAGR BKN020 SCT050CB
RMK FM170600 MOD TURB BLW 5000FT TL171700
T 26 24 24 22 Q 1007 1010 1012 1012

METAR YBAF 170900Z AUTO 03008KT 9999 // NCD 22/20 Q1011 RMK
RF00.0/010.0

* BRISBANE YBBN

TAF AMD YBBN 170640Z 1706/1812
03024KT 9999 FEW040
FM171000 35014KT 9999 FEW035
FM171400 24008KT 9999 FEW030
FM171900 17013KT 9999 FEW020
FM172200 13014KT 9999 FEW030
TEMPO 1707/1712 VRB30G45KT 1000 TSRAGR BKN020 SCT050CB
RMK FM170700 MOD TURB BLW 5000FT TL171800
T 25 23 23 22 Q 1008 1010 1011 1012

TTF METAR YBBN 170830Z 03016KT 9999 FEW030 BKN220 FEW040CB 23/20
Q1011
RMK RF00.0/005.8
FM1000 35014KT 9999 FEW035
FM0830 MOD TURB BLW 5000FT

BUNDABERG YBUD

TAF AMD YBUD 170747Z 1707/1718
36020G30KT 9999 SCT025
FM170900 34010KT 9999 SCT015
TEMPO 1716/1718 9999 NSW BKN013
PROB30 TEMPO 1709/1712 VRB25G35KT 2000 TSRAGR BKN015 BKN050 SCT090CB
RMK
T 24 23 22 20 Q 1013 1015 1015 1014

METAR YBUD 170900Z AUTO 35016KT 9999 // NCD 23/19 Q1015 RMK
RF00.0/000.0

EMERALD YEML

TAF AMD YEML 170503Z 1705/1718
33010KT CAVOK
FM170900 07008KT 9999 SCT018
PROB30 TEMPO 1707/1712 VRB20G35KT 3000 TSRA SCT050 SCT100CB
RMK
T 37 31 25 24 Q 1011 1012 1014 1014

METAR YEML 170900Z AUTO 09011KT 9999 // NCD 26/20 Q1012
RMK RF00.0/001.2

GAYNDAH YGAY

Nil current TAF.

METAR YGAY 170900Z AUTO 05006KT //// // ////// 21/20 Q1013 RMK
RF00.0/009.4

GLADSTONE YGLA

TAF YGLA 170503Z 1706/1718
02014KT 9999 SCT025
FM170900 34008KT 9999 SCT018
TEMPO 1716/1718 9999 NSW BKN015
RMK
T 26 24 24 23 Q 1013 1016 1016 1015

METAR YGLA 170900Z AUTO 35007KT 9999 // NCD 24/18 Q1015 RMK
RF00.0/000.0

GOLD COAST YBCG

TAF AMD YBCG 170729Z 1708/1806
02018KT 9999 FEW035
FM171100 35014KT 9999 FEW035
FM171600 17012KT 9999 SCT018
FM172100 15014KT CAVOK
RMK FM170800 MOD TURB BLW 5000FT TL171700
T 23 22 21 21 Q 1010 1011 1012 1012

METAR YBCG 170900Z AUTO 33007KT 9999 // NCD 22/19 Q1011 RMK
RF00.0/001.8

GOONDIWINDI YGDI

Nil current TAF.

METAR/SPECI observations are not generated for this location.

HERVEY BAY YHBA

TAF AMD YHBA 170747Z 1707/1718
35015G25KT 9999 SCT018 SCT050
FM171000 33012KT 9999 SCT014
TEMPO 1714/1718 9999 NSW BKN013
PROB30 TEMPO 1709/1711 VRB25G35KT 2000 TSRAGR BKN015 BKN050 SCT090CB
RMK
T 24 23 22 21 Q 1013 1015 1015 1014

METAR YHBA 170900Z AUTO 34013KT 9999 // SCT018 SCT079 24/19 Q1016
RMK RF00.0/000.0

KINGAROY YKRY

TAF AMD YKRY 170527Z 1705/1708
35014KT CAVOK
PROB40 TEMPO 1705/1708 VRB30G45KT 2000 TSRAGR BKN050 SCT090CB
RMK
T 32 26 Q 1011 1013

METAR YKRY 170900Z AUTO 35006KT 9999 // NCD 19/17 Q1015 RMK
RF00.0/005.2

MARYBOROUGH YMYB

TAF AMD YMYB 170745Z 1707/1714
35009KT 9999 SCT018
PROB30 TEMPO 1709/1712 VRB25G35KT 2000 TSRAGR BKN015 BKN050 SCT090CB
RMK
T 24 21 20 Q 1013 1015 1015

METAR YMYB 170900Z AUTO 27006KT 9999 // OVC024 24/18 Q1017 RMK
RF00.0/000.0

* OAKEY YBOK

TAF AMD YBOK 170658Z 1707/1714
30015G25KT 9999 SCT080 OVC200
FM170900 27010KT CAVOK
RMK
T 28 24 21 Q 1010 1013 1015

TTF METAR YBOK 170830Z 33013KT CAVOK 26/10 Q1012
RMK RF00.0/000.4
NOSIG

ROCKHAMPTON YBRK

TAF AMD YBRK 170506Z 1706/1806
34011KT 9999 FEW035
FM171000 01008KT 9999 SCT025
FM171500 VRB03KT 9999 BKN018
FM172300 35005KT 9999 SCT025
TEMPO 1716/1721 9999 NSW BKN015
RMK
T 31 26 24 22 Q 1012 1015 1016 1015

METAR YBRK 170830Z AUTO 36011KT 9999 // NCD 27/18 Q1013 RMK
RF00.0/000.0

ROMA YROM

TAF YROM 170703Z 1708/1720
23008KT CAVOK
FM171300 16006KT CAVOK
RMK
T 30 23 20 17 Q 1013 1016 1017 1016

METAR YROM 170900Z AUTO 19009KT 9999 // NCD 30/06 Q1013 RMK
RF00.0/000.4

ST GEORGE YSGE

TAF YSGE 170117Z 1702/1711
24015KT CAVOK
FM170900 20010KT CAVOK
RMK
T 34 33 30 24 Q 1012 1010 1013 1016

METAR YSGE 170900Z AUTO 20013KT 9999 // NCD 28/02 Q1013 RMK
RF00.0/000.0

SUNSHINE COAST YBSU

TAF AMD YBSU 170436Z 1706/1718
02022KT CAVOK
FM171000 34014KT 9999 FEW020
PROB30 TEMPO 1708/1712 VRB30G45KT 4000 TSRAGR BKN020 SCT050CB
RMK
T 27 24 22 21 Q 1010 1012 1013 1013

METAR YBSU 170900Z AUTO 33009KT 9999 // NCD 24/18 Q1013 RMK
RF00.0/000.0

THANGOOL YTNG

TAF AMD YTNG 170756Z 1707/1714
02010KT 9999 FEW040
FM171200 03005KT 9999 SCT020
PROB30 TEMPO 1708/1710 VRB20G35KT 3000 TSRA SCT050 SCT100CB
RMK
T 30 24 22 Q 1012 1015 1016

METAR YTNG 170900Z AUTO 09006KT 070V150 9999 // BKN071 BKN097 26/18
Q1015 RMK RF00.0/000.0

TOOWOOMBA YTWB

TAF AMD YTWB 170713Z 1707/1720
30010KT 9999 SCT050
FM171000 26010KT CAVOK
RMK
T 26 23 20 18 Q 1013 1015 1017 1016

METAR YTWB 170900Z AUTO 28008KT 9999 // SCT093 23/11 Q1016 RMK
RF00.0/002.0

WELLCAMP (BRISBANE WEST) YBWW

TAF AMD YBWW 170714Z 1707/1714
30010KT 9999 SCT050
FM171000 26010KT CAVOK
RMK
T 28 24 21 Q 1011 1013 1015

METAR YBWW 170900Z AUTO 26008KT 9999 // NCD 22/13 Q1013 RMK
RF00.0/001.6

* Note: The latest TTF automatically supersedes the TAF for the 3 hr validity of the TTF, unless otherwise specified in the TTF.

DOQLD Area Briefing Map


Whole of Australia